sensor_id;sensor_type;location;lat;lon;timestamp;P1;durP1;ratioP1;P2;durP2;ratioP2
21798;SDS011;24973;47.178;15.316;2022-10-18T00:00:03;29.93;;;19.77;;
21798;SDS011;24973;47.178;15.316;2022-10-18T00:02:53;27.07;;;20.57;;
21798;SDS011;24973;47.178;15.316;2022-10-18T00:05:43;30.93;;;20.60;;
21798;SDS011;24973;47.178;15.316;2022-10-18T00:08:33;27.63;;;20.27;;
21798;SDS011;24973;47.178;15.316;2022-10-18T00:11:22;35.40;;;21.13;;
21798;SDS011;24973;47.178;15.316;2022-10-18T00:14:11;28.17;;;18.63;;
21798;SDS011;24973;47.178;15.316;2022-10-18T00:17:00;26.83;;;19.83;;
21798;SDS011;24973;47.178;15.316;2022-10-18T00:19:49;26.83;;;19.00;;
21798;SDS011;24973;47.178;15.316;2022-10-18T00:22:39;26.53;;;20.00;;
21798;SDS011;24973;47.178;15.316;2022-10-18T00:25:28;33.80;;;22.20;;
21798;SDS011;24973;47.178;15.316;2022-10-18T00:28:17;35.53;;;20.63;;
21798;SDS011;24973;47.178;15.316;2022-10-18T00:31:10;29.17;;;20.80;;
21798;SDS011;24973;47.178;15.316;2022-10-18T00:34:01;30.37;;;21.40;;
21798;SDS011;24973;47.178;15.316;2022-10-18T00:36:53;27.33;;;20.97;;
21798;SDS011;24973;47.178;15.316;2022-10-18T00:39:43;33.13;;;22.97;;
21798;SDS011;24973;47.178;15.316;2022-10-18T00:42:32;29.07;;;20.13;;
21798;SDS011;24973;47.178;15.316;2022-10-18T00:45:22;32.67;;;21.77;;
21798;SDS011;24973;47.178;15.316;2022-10-18T00:48:12;24.63;;;19.43;;
21798;SDS011;24973;47.178;15.316;2022-10-18T00:51:02;35.80;;;21.57;;
21798;SDS011;24973;47.178;15.316;2022-10-18T00:53:51;30.37;;;20.97;;
21798;SDS011;24973;47.178;15.316;2022-10-18T00:56:41;26.73;;;19.57;;
21798;SDS011;24973;47.178;15.316;2022-10-18T00:59:31;27.43;;;21.27;;
21798;SDS011;24973;47.178;15.316;2022-10-18T01:02:20;27.63;;;19.63;;
21798;SDS011;24973;47.178;15.316;2022-10-18T01:05:10;22.00;;;18.13;;
21798;SDS011;24973;47.178;15.316;2022-10-18T01:08:06;32.37;;;20.93;;
21798;SDS011;24973;47.178;15.316;2022-10-18T01:11:37;31.03;;;19.90;;
21798;SDS011;24973;47.178;15.316;2022-10-18T01:14:53;29.00;;;19.73;;
21798;SDS011;24973;47.178;15.316;2022-10-18T01:17:51;26.57;;;20.60;;
21798;SDS011;24973;47.178;15.316;2022-10-18T01:24:24;27.23;;;17.57;;
21798;SDS011;24973;47.178;15.316;2022-10-18T01:27:44;27.00;;;17.80;;
21798;SDS011;24973;47.178;15.316;2022-10-18T01:30:43;22.50;;;19.00;;
21798;SDS011;24973;47.178;15.316;2022-10-18T01:33:38;27.97;;;19.60;;
21798;SDS011;24973;47.178;15.316;2022-10-18T01:36:30;26.93;;;20.10;;
21798;SDS011;24973;47.178;15.316;2022-10-18T01:39:22;32.07;;;20.97;;
21798;SDS011;24973;47.178;15.316;2022-10-18T01:42:17;30.30;;;20.45;;
21798;SDS011;24973;47.178;15.316;2022-10-18T01:45:07;32.97;;;19.70;;
21798;SDS011;24973;47.178;15.316;2022-10-18T01:47:59;28.80;;;21.87;;
21798;SDS011;24973;47.178;15.316;2022-10-18T01:50:50;27.67;;;20.33;;
21798;SDS011;24973;47.178;15.316;2022-10-18T01:53:40;25.20;;;19.83;;
21798;SDS011;24973;47.178;15.316;2022-10-18T01:56:30;30.90;;;19.40;;
21798;SDS011;24973;47.178;15.316;2022-10-18T01:59:29;28.07;;;19.27;;
21798;SDS011;24973;47.178;15.316;2022-10-18T02:02:35;26.17;;;20.17;;
21798;SDS011;24973;47.178;15.316;2022-10-18T02:05:32;33.90;;;19.63;;
21798;SDS011;24973;47.178;15.316;2022-10-18T02:08:28;33.63;;;21.40;;
21798;SDS011;24973;47.178;15.316;2022-10-18T02:11:21;31.17;;;21.53;;
21798;SDS011;24973;47.178;15.316;2022-10-18T02:14:11;31.87;;;20.87;;
21798;SDS011;24973;47.178;15.316;2022-10-18T02:17:02;22.33;;;17.90;;
21798;SDS011;24973;47.178;15.316;2022-10-18T02:19:55;25.37;;;19.17;;
21798;SDS011;24973;47.178;15.316;2022-10-18T02:22:46;24.80;;;18.07;;
21798;SDS011;24973;47.178;15.316;2022-10-18T02:25:37;24.47;;;18.50;;
21798;SDS011;24973;47.178;15.316;2022-10-18T02:28:26;27.70;;;19.83;;
21798;SDS011;24973;47.178;15.316;2022-10-18T02:31:18;29.30;;;19.17;;
21798;SDS011;24973;47.178;15.316;2022-10-18T02:34:14;27.60;;;18.97;;
21798;SDS011;24973;47.178;15.316;2022-10-18T02:37:08;25.57;;;18.43;;
21798;SDS011;24973;47.178;15.316;2022-10-18T02:40:00;32.00;;;18.93;;
21798;SDS011;24973;47.178;15.316;2022-10-18T02:42:52;25.87;;;19.03;;
21798;SDS011;24973;47.178;15.316;2022-10-18T02:45:43;28.83;;;19.50;;
21798;SDS011;24973;47.178;15.316;2022-10-18T02:48:32;33.53;;;21.10;;
21798;SDS011;24973;47.178;15.316;2022-10-18T02:51:20;28.73;;;20.83;;
21798;SDS011;24973;47.178;15.316;2022-10-18T02:54:10;31.00;;;21.90;;
21798;SDS011;24973;47.178;15.316;2022-10-18T02:57:00;32.10;;;22.20;;
21798;SDS011;24973;47.178;15.316;2022-10-18T02:59:49;34.00;;;23.80;;
21798;SDS011;24973;47.178;15.316;2022-10-18T03:02:38;32.50;;;21.40;;
21798;SDS011;24973;47.178;15.316;2022-10-18T03:05:26;30.07;;;22.10;;
21798;SDS011;24973;47.178;15.316;2022-10-18T03:08:15;29.33;;;20.63;;
21798;SDS011;24973;47.178;15.316;2022-10-18T03:11:04;28.90;;;20.27;;
21798;SDS011;24973;47.178;15.316;2022-10-18T03:13:55;26.63;;;19.90;;
21798;SDS011;24973;47.178;15.316;2022-10-18T03:16:43;27.00;;;18.60;;
21798;SDS011;24973;47.178;15.316;2022-10-18T03:19:32;29.57;;;19.80;;
21798;SDS011;24973;47.178;15.316;2022-10-18T03:22:21;35.27;;;21.80;;
21798;SDS011;24973;47.178;15.316;2022-10-18T03:25:10;28.90;;;19.97;;
21798;SDS011;24973;47.178;15.316;2022-10-18T03:27:59;29.20;;;19.37;;
21798;SDS011;24973;47.178;15.316;2022-10-18T03:30:49;30.93;;;20.40;;
21798;SDS011;24973;47.178;15.316;2022-10-18T03:33:38;26.50;;;18.93;;
21798;SDS011;24973;47.178;15.316;2022-10-18T03:36:27;25.63;;;17.67;;
21798;SDS011;24973;47.178;15.316;2022-10-18T03:39:15;25.80;;;19.23;;
21798;SDS011;24973;47.178;15.316;2022-10-18T03:42:04;29.43;;;19.13;;
21798;SDS011;24973;47.178;15.316;2022-10-18T03:44:53;29.33;;;18.73;;
21798;SDS011;24973;47.178;15.316;2022-10-18T03:47:43;25.83;;;17.30;;
21798;SDS011;24973;47.178;15.316;2022-10-18T03:50:31;37.73;;;20.90;;
21798;SDS011;24973;47.178;15.316;2022-10-18T03:53:20;36.03;;;21.27;;
21798;SDS011;24973;47.178;15.316;2022-10-18T03:56:09;35.47;;;22.30;;
21798;SDS011;24973;47.178;15.316;2022-10-18T03:58:57;30.87;;;20.97;;
21798;SDS011;24973;47.178;15.316;2022-10-18T04:01:46;28.83;;;21.57;;
21798;SDS011;24973;47.178;15.316;2022-10-18T04:04:36;28.53;;;21.03;;
21798;SDS011;24973;47.178;15.316;2022-10-18T04:07:25;28.47;;;18.90;;
21798;SDS011;24973;47.178;15.316;2022-10-18T04:10:13;35.70;;;20.97;;
21798;SDS011;24973;47.178;15.316;2022-10-18T04:13:04;28.67;;;21.60;;
21798;SDS011;24973;47.178;15.316;2022-10-18T04:15:53;31.43;;;20.53;;
21798;SDS011;24973;47.178;15.316;2022-10-18T04:18:42;35.30;;;22.00;;
21798;SDS011;24973;47.178;15.316;2022-10-18T04:21:32;30.80;;;21.00;;
21798;SDS011;24973;47.178;15.316;2022-10-18T04:24:20;32.10;;;21.27;;
21798;SDS011;24973;47.178;15.316;2022-10-18T04:27:09;34.57;;;21.77;;
21798;SDS011;24973;47.178;15.316;2022-10-18T04:29:58;31.33;;;22.03;;
21798;SDS011;24973;47.178;15.316;2022-10-18T04:32:47;31.73;;;20.67;;
21798;SDS011;24973;47.178;15.316;2022-10-18T04:35:35;38.33;;;21.70;;
21798;SDS011;24973;47.178;15.316;2022-10-18T04:38:25;31.40;;;21.27;;
21798;SDS011;24973;47.178;15.316;2022-10-18T04:41:14;34.47;;;19.80;;
21798;SDS011;24973;47.178;15.316;2022-10-18T04:44:03;33.67;;;20.33;;
21798;SDS011;24973;47.178;15.316;2022-10-18T04:46:52;27.80;;;18.37;;
21798;SDS011;24973;47.178;15.316;2022-10-18T04:49:41;32.43;;;21.50;;
21798;SDS011;24973;47.178;15.316;2022-10-18T04:52:30;37.70;;;21.30;;
21798;SDS011;24973;47.178;15.316;2022-10-18T04:55:20;28.53;;;19.70;;
21798;SDS011;24973;47.178;15.316;2022-10-18T04:58:08;29.30;;;20.17;;
21798;SDS011;24973;47.178;15.316;2022-10-18T05:00:57;27.73;;;18.63;;
21798;SDS011;24973;47.178;15.316;2022-10-18T05:03:50;33.20;;;20.67;;
21798;SDS011;24973;47.178;15.316;2022-10-18T05:06:39;31.13;;;20.53;;
21798;SDS011;24973;47.178;15.316;2022-10-18T05:09:28;33.30;;;21.60;;
21798;SDS011;24973;47.178;15.316;2022-10-18T05:12:18;42.83;;;27.20;;
21798;SDS011;24973;47.178;15.316;2022-10-18T05:15:08;35.47;;;22.47;;
21798;SDS011;24973;47.178;15.316;2022-10-18T05:17:57;29.07;;;18.83;;
21798;SDS011;24973;47.178;15.316;2022-10-18T05:20:46;29.17;;;20.30;;
21798;SDS011;24973;47.178;15.316;2022-10-18T05:23:34;34.20;;;21.47;;
21798;SDS011;24973;47.178;15.316;2022-10-18T05:26:23;34.33;;;21.23;;
21798;SDS011;24973;47.178;15.316;2022-10-18T05:29:13;34.33;;;20.80;;
21798;SDS011;24973;47.178;15.316;2022-10-18T05:32:02;30.97;;;19.97;;
21798;SDS011;24973;47.178;15.316;2022-10-18T05:34:51;33.00;;;21.67;;
21798;SDS011;24973;47.178;15.316;2022-10-18T05:37:40;33.37;;;21.00;;
21798;SDS011;24973;47.178;15.316;2022-10-18T05:40:28;33.03;;;20.33;;
21798;SDS011;24973;47.178;15.316;2022-10-18T05:43:17;29.67;;;21.90;;
21798;SDS011;24973;47.178;15.316;2022-10-18T05:46:07;31.90;;;21.23;;
21798;SDS011;24973;47.178;15.316;2022-10-18T05:48:59;35.20;;;21.70;;
21798;SDS011;24973;47.178;15.316;2022-10-18T05:51:48;29.77;;;20.63;;
21798;SDS011;24973;47.178;15.316;2022-10-18T05:54:36;32.57;;;21.30;;
21798;SDS011;24973;47.178;15.316;2022-10-18T05:57:25;31.13;;;20.70;;
21798;SDS011;24973;47.178;15.316;2022-10-18T06:00:14;30.70;;;19.87;;
21798;SDS011;24973;47.178;15.316;2022-10-18T06:03:04;28.20;;;18.30;;
21798;SDS011;24973;47.178;15.316;2022-10-18T06:05:57;28.77;;;20.50;;
21798;SDS011;24973;47.178;15.316;2022-10-18T06:08:47;29.77;;;20.13;;
21798;SDS011;24973;47.178;15.316;2022-10-18T06:11:36;37.10;;;21.17;;
21798;SDS011;24973;47.178;15.316;2022-10-18T06:14:25;29.10;;;19.03;;
21798;SDS011;24973;47.178;15.316;2022-10-18T06:17:14;32.63;;;19.13;;
21798;SDS011;24973;47.178;15.316;2022-10-18T06:20:04;26.13;;;18.83;;
21798;SDS011;24973;47.178;15.316;2022-10-18T06:22:54;31.07;;;18.20;;
21798;SDS011;24973;47.178;15.316;2022-10-18T06:25:43;30.47;;;20.17;;
21798;SDS011;24973;47.178;15.316;2022-10-18T06:28:32;27.07;;;18.17;;
21798;SDS011;24973;47.178;15.316;2022-10-18T06:31:21;29.63;;;19.67;;
21798;SDS011;24973;47.178;15.316;2022-10-18T06:34:10;30.27;;;18.93;;
21798;SDS011;24973;47.178;15.316;2022-10-18T06:37:00;29.77;;;17.80;;
21798;SDS011;24973;47.178;15.316;2022-10-18T06:39:49;30.27;;;19.87;;
21798;SDS011;24973;47.178;15.316;2022-10-18T06:42:37;30.50;;;19.03;;
21798;SDS011;24973;47.178;15.316;2022-10-18T06:45:26;25.63;;;17.27;;
21798;SDS011;24973;47.178;15.316;2022-10-18T06:48:15;28.70;;;17.43;;
21798;SDS011;24973;47.178;15.316;2022-10-18T06:51:10;25.23;;;17.47;;
21798;SDS011;24973;47.178;15.316;2022-10-18T06:54:00;28.57;;;17.40;;
21798;SDS011;24973;47.178;15.316;2022-10-18T06:57:02;23.33;;;17.37;;
21798;SDS011;24973;47.178;15.316;2022-10-18T06:59:51;27.07;;;19.23;;
21798;SDS011;24973;47.178;15.316;2022-10-18T07:02:39;24.63;;;16.37;;
21798;SDS011;24973;47.178;15.316;2022-10-18T07:05:28;26.57;;;19.23;;
21798;SDS011;24973;47.178;15.316;2022-10-18T07:08:18;26.17;;;15.60;;
21798;SDS011;24973;47.178;15.316;2022-10-18T07:11:10;25.77;;;16.53;;
21798;SDS011;24973;47.178;15.316;2022-10-18T07:14:02;26.50;;;17.40;;
21798;SDS011;24973;47.178;15.316;2022-10-18T07:16:51;24.90;;;16.90;;
21798;SDS011;24973;47.178;15.316;2022-10-18T07:19:40;24.90;;;15.47;;
21798;SDS011;24973;47.178;15.316;2022-10-18T07:22:28;29.37;;;16.27;;
21798;SDS011;24973;47.178;15.316;2022-10-18T07:25:17;24.25;;;15.75;;
21798;SDS011;24973;47.178;15.316;2022-10-18T07:28:07;23.87;;;16.40;;
21798;SDS011;24973;47.178;15.316;2022-10-18T07:30:56;19.60;;;14.47;;
21798;SDS011;24973;47.178;15.316;2022-10-18T07:33:51;20.05;;;15.10;;
21798;SDS011;24973;47.178;15.316;2022-10-18T07:36:40;28.37;;;17.87;;
21798;SDS011;24973;47.178;15.316;2022-10-18T07:39:29;24.50;;;15.97;;
21798;SDS011;24973;47.178;15.316;2022-10-18T07:42:17;25.27;;;16.50;;
21798;SDS011;24973;47.178;15.316;2022-10-18T07:45:08;23.73;;;14.07;;
21798;SDS011;24973;47.178;15.316;2022-10-18T07:47:59;23.53;;;14.77;;
21798;SDS011;24973;47.178;15.316;2022-10-18T07:50:47;17.03;;;13.00;;
21798;SDS011;24973;47.178;15.316;2022-10-18T07:53:36;22.40;;;14.80;;
21798;SDS011;24973;47.178;15.316;2022-10-18T07:56:25;25.53;;;13.10;;
21798;SDS011;24973;47.178;15.316;2022-10-18T07:59:14;20.43;;;14.53;;
21798;SDS011;24973;47.178;15.316;2022-10-18T08:02:04;18.87;;;11.40;;
21798;SDS011;24973;47.178;15.316;2022-10-18T08:04:53;20.90;;;13.17;;
21798;SDS011;24973;47.178;15.316;2022-10-18T08:07:42;17.63;;;12.00;;
21798;SDS011;24973;47.178;15.316;2022-10-18T08:10:30;22.17;;;12.40;;
21798;SDS011;24973;47.178;15.316;2022-10-18T08:13:21;16.83;;;12.27;;
21798;SDS011;24973;47.178;15.316;2022-10-18T08:16:10;18.53;;;12.60;;
21798;SDS011;24973;47.178;15.316;2022-10-18T08:19:02;14.40;;;10.93;;
21798;SDS011;24973;47.178;15.316;2022-10-18T08:21:51;17.23;;;12.63;;
21798;SDS011;24973;47.178;15.316;2022-10-18T08:24:39;16.23;;;10.97;;
21798;SDS011;24973;47.178;15.316;2022-10-18T08:27:28;14.93;;;9.67;;
21798;SDS011;24973;47.178;15.316;2022-10-18T08:30:17;14.17;;;10.30;;
21798;SDS011;24973;47.178;15.316;2022-10-18T08:33:06;15.13;;;10.20;;
21798;SDS011;24973;47.178;15.316;2022-10-18T08:35:56;16.70;;;10.80;;
21798;SDS011;24973;47.178;15.316;2022-10-18T08:38:46;14.00;;;10.63;;
21798;SDS011;24973;47.178;15.316;2022-10-18T08:45:20;11.27;;;8.40;;
21798;SDS011;24973;47.178;15.316;2022-10-18T08:48:16;13.90;;;9.33;;
21798;SDS011;24973;47.178;15.316;2022-10-18T08:51:17;12.20;;;9.03;;
21798;SDS011;24973;47.178;15.316;2022-10-18T08:54:15;13.47;;;9.77;;
21798;SDS011;24973;47.178;15.316;2022-10-18T08:57:11;13.10;;;9.00;;
21798;SDS011;24973;47.178;15.316;2022-10-18T09:00:04;12.27;;;8.83;;
21798;SDS011;24973;47.178;15.316;2022-10-18T09:03:06;12.27;;;8.33;;
21798;SDS011;24973;47.178;15.316;2022-10-18T09:06:10;14.40;;;9.33;;
21798;SDS011;24973;47.178;15.316;2022-10-18T09:09:16;13.40;;;10.30;;
21798;SDS011;24973;47.178;15.316;2022-10-18T09:12:19;9.97;;;8.87;;
21798;SDS011;24973;47.178;15.316;2022-10-18T09:15:33;22.10;;;11.83;;
21798;SDS011;24973;47.178;15.316;2022-10-18T09:18:43;11.10;;;8.70;;
21798;SDS011;24973;47.178;15.316;2022-10-18T09:21:46;11.33;;;8.50;;
21798;SDS011;24973;47.178;15.316;2022-10-18T09:24:40;10.83;;;9.10;;
21798;SDS011;24973;47.178;15.316;2022-10-18T09:27:34;14.40;;;9.40;;
21798;SDS011;24973;47.178;15.316;2022-10-18T09:30:35;15.70;;;9.27;;
21798;SDS011;24973;47.178;15.316;2022-10-18T09:33:34;11.77;;;9.03;;
21798;SDS011;24973;47.178;15.316;2022-10-18T09:36:33;13.90;;;9.10;;
21798;SDS011;24973;47.178;15.316;2022-10-18T09:39:27;10.50;;;8.73;;
21798;SDS011;24973;47.178;15.316;2022-10-18T09:42:20;12.67;;;8.83;;
21798;SDS011;24973;47.178;15.316;2022-10-18T09:45:24;10.97;;;7.97;;
21798;SDS011;24973;47.178;15.316;2022-10-18T09:48:16;10.67;;;8.57;;
21798;SDS011;24973;47.178;15.316;2022-10-18T09:51:11;10.67;;;8.37;;
21798;SDS011;24973;47.178;15.316;2022-10-18T09:54:11;9.50;;;8.50;;
21798;SDS011;24973;47.178;15.316;2022-10-18T09:57:14;12.43;;;8.03;;
21798;SDS011;24973;47.178;15.316;2022-10-18T10:00:11;10.53;;;8.70;;
21798;SDS011;24973;47.178;15.316;2022-10-18T10:03:05;11.33;;;8.53;;
21798;SDS011;24973;47.178;15.316;2022-10-18T10:06:01;9.50;;;8.20;;
21798;SDS011;24973;47.178;15.316;2022-10-18T10:09:05;9.90;;;8.00;;
21798;SDS011;24973;47.178;15.316;2022-10-18T10:12:01;10.30;;;8.07;;
21798;SDS011;24973;47.178;15.316;2022-10-18T10:14:51;13.20;;;9.97;;
21798;SDS011;24973;47.178;15.316;2022-10-18T10:17:40;10.97;;;8.90;;
21798;SDS011;24973;47.178;15.316;2022-10-18T10:20:32;12.80;;;8.97;;
21798;SDS011;24973;47.178;15.316;2022-10-18T10:23:28;11.27;;;9.10;;
21798;SDS011;24973;47.178;15.316;2022-10-18T10:26:21;10.87;;;8.53;;
21798;SDS011;24973;47.178;15.316;2022-10-18T10:32:44;8.10;;;7.30;;
21798;SDS011;24973;47.178;15.316;2022-10-18T10:35:36;11.80;;;7.97;;
21798;SDS011;24973;47.178;15.316;2022-10-18T10:38:41;8.97;;;7.67;;
21798;SDS011;24973;47.178;15.316;2022-10-18T10:41:30;11.97;;;9.07;;
21798;SDS011;24973;47.178;15.316;2022-10-18T10:44:21;11.33;;;8.73;;
21798;SDS011;24973;47.178;15.316;2022-10-18T10:47:25;11.27;;;8.47;;
21798;SDS011;24973;47.178;15.316;2022-10-18T10:50:21;12.47;;;7.23;;
21798;SDS011;24973;47.178;15.316;2022-10-18T10:53:20;12.20;;;8.07;;
21798;SDS011;24973;47.178;15.316;2022-10-18T10:56:22;9.47;;;8.20;;
21798;SDS011;24973;47.178;15.316;2022-10-18T10:59:14;10.30;;;7.60;;
21798;SDS011;24973;47.178;15.316;2022-10-18T11:02:10;8.87;;;7.37;;
21798;SDS011;24973;47.178;15.316;2022-10-18T11:05:22;9.20;;;8.10;;
21798;SDS011;24973;47.178;15.316;2022-10-18T11:08:14;9.40;;;7.00;;
21798;SDS011;24973;47.178;15.316;2022-10-18T11:11:12;11.70;;;8.43;;
21798;SDS011;24973;47.178;15.316;2022-10-18T11:14:08;11.47;;;8.00;;
21798;SDS011;24973;47.178;15.316;2022-10-18T11:17:15;9.37;;;7.40;;
21798;SDS011;24973;47.178;15.316;2022-10-18T11:20:12;12.10;;;8.20;;
21798;SDS011;24973;47.178;15.316;2022-10-18T11:23:09;11.50;;;7.77;;
21798;SDS011;24973;47.178;15.316;2022-10-18T11:26:07;9.00;;;8.07;;
21798;SDS011;24973;47.178;15.316;2022-10-18T11:29:22;11.27;;;7.90;;
21798;SDS011;24973;47.178;15.316;2022-10-18T11:32:37;9.77;;;6.87;;
21798;SDS011;24973;47.178;15.316;2022-10-18T11:35:34;11.43;;;7.50;;
21798;SDS011;24973;47.178;15.316;2022-10-18T11:38:32;8.63;;;7.40;;
21798;SDS011;24973;47.178;15.316;2022-10-18T11:41:30;9.20;;;7.53;;
21798;SDS011;24973;47.178;15.316;2022-10-18T11:44:26;9.23;;;7.40;;
21798;SDS011;24973;47.178;15.316;2022-10-18T11:47:24;10.93;;;7.33;;
21798;SDS011;24973;47.178;15.316;2022-10-18T11:50:26;7.50;;;6.80;;
21798;SDS011;24973;47.178;15.316;2022-10-18T11:53:26;10.20;;;6.88;;
21798;SDS011;24973;47.178;15.316;2022-10-18T11:56:24;8.70;;;7.80;;
21798;SDS011;24973;47.178;15.316;2022-10-18T11:59:25;11.05;;;8.40;;
21798;SDS011;24973;47.178;15.316;2022-10-18T12:05:44;8.25;;;6.82;;
21798;SDS011;24973;47.178;15.316;2022-10-18T12:08:36;10.25;;;8.73;;
21798;SDS011;24973;47.178;15.316;2022-10-18T12:11:29;10.23;;;8.98;;
21798;SDS011;24973;47.178;15.316;2022-10-18T12:14:24;10.45;;;8.57;;
21798;SDS011;24973;47.178;15.316;2022-10-18T12:17:18;11.88;;;9.00;;
21798;SDS011;24973;47.178;15.316;2022-10-18T12:20:28;13.27;;;9.57;;
21798;SDS011;24973;47.178;15.316;2022-10-18T12:23:28;10.85;;;9.75;;
21798;SDS011;24973;47.178;15.316;2022-10-18T12:26:25;10.63;;;9.63;;
21798;SDS011;24973;47.178;15.316;2022-10-18T12:29:17;15.95;;;11.30;;
21798;SDS011;24973;47.178;15.316;2022-10-18T12:32:13;11.52;;;10.32;;
21798;SDS011;24973;47.178;15.316;2022-10-18T12:35:08;27.85;;;11.15;;
21798;SDS011;24973;47.178;15.316;2022-10-18T12:38:07;11.65;;;10.13;;
21798;SDS011;24973;47.178;15.316;2022-10-18T12:41:09;11.15;;;9.63;;
21798;SDS011;24973;47.178;15.316;2022-10-18T12:44:16;12.48;;;10.77;;
21798;SDS011;24973;47.178;15.316;2022-10-18T12:47:17;13.80;;;10.00;;
21798;SDS011;24973;47.178;15.316;2022-10-18T12:50:21;12.38;;;8.85;;
21798;SDS011;24973;47.178;15.316;2022-10-18T12:53:22;9.70;;;8.80;;
21798;SDS011;24973;47.178;15.316;2022-10-18T12:56:35;10.52;;;9.63;;
21798;SDS011;24973;47.178;15.316;2022-10-18T13:02:37;15.05;;;9.65;;
21798;SDS011;24973;47.178;15.316;2022-10-18T13:05:52;10.57;;;9.48;;
21798;SDS011;24973;47.178;15.316;2022-10-18T13:08:45;12.05;;;10.20;;
21798;SDS011;24973;47.178;15.316;2022-10-18T13:11:38;13.38;;;8.93;;
21798;SDS011;24973;47.178;15.316;2022-10-18T13:14:32;11.45;;;9.20;;
21798;SDS011;24973;47.178;15.316;2022-10-18T13:17:46;10.60;;;9.55;;
21798;SDS011;24973;47.178;15.316;2022-10-18T13:20:42;16.20;;;9.63;;
21798;SDS011;24973;47.178;15.316;2022-10-18T13:23:39;11.40;;;9.77;;
21798;SDS011;24973;47.178;15.316;2022-10-18T13:26:56;10.90;;;9.30;;
21798;SDS011;24973;47.178;15.316;2022-10-18T13:33:29;13.13;;;9.85;;
21798;SDS011;24973;47.178;15.316;2022-10-18T13:36:21;15.35;;;10.88;;
21798;SDS011;24973;47.178;15.316;2022-10-18T13:39:17;12.75;;;9.52;;
21798;SDS011;24973;47.178;15.316;2022-10-18T13:42:28;11.25;;;10.10;;
21798;SDS011;24973;47.178;15.316;2022-10-18T13:48:48;11.32;;;9.48;;
21798;SDS011;24973;47.178;15.316;2022-10-18T13:51:47;10.93;;;9.82;;
21798;SDS011;24973;47.178;15.316;2022-10-18T13:54:50;11.70;;;9.68;;
21798;SDS011;24973;47.178;15.316;2022-10-18T13:57:58;10.32;;;9.13;;
21798;SDS011;24973;47.178;15.316;2022-10-18T14:01:02;14.30;;;10.40;;
21798;SDS011;24973;47.178;15.316;2022-10-18T14:04:25;12.07;;;10.23;;
21798;SDS011;24973;47.178;15.316;2022-10-18T14:07:51;11.32;;;8.88;;
21798;SDS011;24973;47.178;15.316;2022-10-18T14:10:50;13.80;;;10.18;;
21798;SDS011;24973;47.178;15.316;2022-10-18T14:13:51;12.18;;;10.85;;
21798;SDS011;24973;47.178;15.316;2022-10-18T14:16:45;13.13;;;10.75;;
21798;SDS011;24973;47.178;15.316;2022-10-18T14:19:37;13.38;;;11.35;;
21798;SDS011;24973;47.178;15.316;2022-10-18T14:22:30;13.32;;;11.00;;
21798;SDS011;24973;47.178;15.316;2022-10-18T14:25:27;13.13;;;11.73;;
21798;SDS011;24973;47.178;15.316;2022-10-18T14:28:19;13.07;;;11.60;;
21798;SDS011;24973;47.178;15.316;2022-10-18T14:31:14;11.73;;;10.48;;
21798;SDS011;24973;47.178;15.316;2022-10-18T14:34:09;12.70;;;11.40;;
21798;SDS011;24973;47.178;15.316;2022-10-18T14:37:02;15.48;;;11.98;;
21798;SDS011;24973;47.178;15.316;2022-10-18T14:39:50;11.52;;;9.82;;
21798;SDS011;24973;47.178;15.316;2022-10-18T14:42:39;13.15;;;10.43;;
21798;SDS011;24973;47.178;15.316;2022-10-18T14:45:35;14.95;;;10.43;;
21798;SDS011;24973;47.178;15.316;2022-10-18T14:48:26;15.45;;;10.98;;
21798;SDS011;24973;47.178;15.316;2022-10-18T14:51:15;14.02;;;10.70;;
21798;SDS011;24973;47.178;15.316;2022-10-18T14:54:03;13.55;;;11.40;;
21798;SDS011;24973;47.178;15.316;2022-10-18T14:56:54;15.07;;;11.00;;
21798;SDS011;24973;47.178;15.316;2022-10-18T14:59:44;14.95;;;11.15;;
21798;SDS011;24973;47.178;15.316;2022-10-18T15:02:37;11.35;;;10.23;;
21798;SDS011;24973;47.178;15.316;2022-10-18T15:05:27;19.38;;;13.00;;
21798;SDS011;24973;47.178;15.316;2022-10-18T15:08:16;15.18;;;11.85;;
21798;SDS011;24973;47.178;15.316;2022-10-18T15:11:06;19.38;;;11.25;;
21798;SDS011;24973;47.178;15.316;2022-10-18T15:13:57;14.07;;;10.83;;
21798;SDS011;24973;47.178;15.316;2022-10-18T15:16:54;18.03;;;10.80;;
21798;SDS011;24973;47.178;15.316;2022-10-18T15:19:53;13.47;;;11.40;;
21798;SDS011;24973;47.178;15.316;2022-10-18T15:22:46;15.60;;;11.10;;
21798;SDS011;24973;47.178;15.316;2022-10-18T15:25:35;15.37;;;11.57;;
21798;SDS011;24973;47.178;15.316;2022-10-18T15:28:26;12.27;;;10.97;;
21798;SDS011;24973;47.178;15.316;2022-10-18T15:31:21;14.73;;;11.70;;
21798;SDS011;24973;47.178;15.316;2022-10-18T15:34:14;16.13;;;12.20;;
21798;SDS011;24973;47.178;15.316;2022-10-18T15:37:14;16.00;;;11.87;;
21798;SDS011;24973;47.178;15.316;2022-10-18T15:40:16;13.53;;;11.87;;
21798;SDS011;24973;47.178;15.316;2022-10-18T15:43:32;17.07;;;13.20;;
21798;SDS011;24973;47.178;15.316;2022-10-18T15:46:29;15.77;;;11.33;;
21798;SDS011;24973;47.178;15.316;2022-10-18T15:52:42;23.13;;;13.17;;
21798;SDS011;24973;47.178;15.316;2022-10-18T15:58:47;17.50;;;12.97;;
21798;SDS011;24973;47.178;15.316;2022-10-18T16:01:37;20.77;;;11.83;;
21798;SDS011;24973;47.178;15.316;2022-10-18T16:04:31;17.43;;;12.17;;
21798;SDS011;24973;47.178;15.316;2022-10-18T16:07:20;19.20;;;13.50;;
21798;SDS011;24973;47.178;15.316;2022-10-18T16:10:10;17.97;;;13.57;;
21798;SDS011;24973;47.178;15.316;2022-10-18T16:13:02;22.57;;;14.27;;
21798;SDS011;24973;47.178;15.316;2022-10-18T16:15:50;17.50;;;13.80;;
21798;SDS011;24973;47.178;15.316;2022-10-18T16:18:41;20.93;;;14.20;;
21798;SDS011;24973;47.178;15.316;2022-10-18T16:21:30;20.37;;;12.67;;
21798;SDS011;24973;47.178;15.316;2022-10-18T16:24:21;17.83;;;13.10;;
21798;SDS011;24973;47.178;15.316;2022-10-18T16:27:10;15.83;;;13.93;;
21798;SDS011;24973;47.178;15.316;2022-10-18T16:30:00;21.20;;;13.73;;
21798;SDS011;24973;47.178;15.316;2022-10-18T16:32:50;19.07;;;13.03;;
21798;SDS011;24973;47.178;15.316;2022-10-18T16:35:39;19.53;;;13.90;;
21798;SDS011;24973;47.178;15.316;2022-10-18T16:38:28;14.37;;;12.47;;
21798;SDS011;24973;47.178;15.316;2022-10-18T16:41:20;22.30;;;14.43;;
21798;SDS011;24973;47.178;15.316;2022-10-18T16:44:10;23.10;;;15.20;;
21798;SDS011;24973;47.178;15.316;2022-10-18T16:47:00;22.43;;;14.27;;
21798;SDS011;24973;47.178;15.316;2022-10-18T16:49:50;22.20;;;14.37;;
21798;SDS011;24973;47.178;15.316;2022-10-18T16:52:38;18.90;;;15.27;;
21798;SDS011;24973;47.178;15.316;2022-10-18T16:55:27;18.33;;;14.33;;
21798;SDS011;24973;47.178;15.316;2022-10-18T16:58:16;25.90;;;13.17;;
21798;SDS011;24973;47.178;15.316;2022-10-18T17:01:05;19.70;;;14.77;;
21798;SDS011;24973;47.178;15.316;2022-10-18T17:03:58;21.47;;;13.20;;
21798;SDS011;24973;47.178;15.316;2022-10-18T17:06:47;18.87;;;13.37;;
21798;SDS011;24973;47.178;15.316;2022-10-18T17:09:36;15.90;;;13.23;;
21798;SDS011;24973;47.178;15.316;2022-10-18T17:12:25;20.40;;;14.07;;
21798;SDS011;24973;47.178;15.316;2022-10-18T17:15:14;14.23;;;12.73;;